createdAt,value
2022-11-25T00:01:34.724Z,98907.40
2022-11-25T00:04:02.771Z,98897.60
2022-11-25T00:06:34.822Z,98897.40
2022-11-25T00:09:10.510Z,98897.80
2022-11-25T00:11:41.526Z,98900.20
2022-11-25T00:14:15.407Z,98893.60
2022-11-25T00:16:48.050Z,98892.60
2022-11-25T00:19:17.658Z,98892.20
2022-11-25T00:21:45.754Z,98892.40
2022-11-25T00:24:16.122Z,98899.00
2022-11-25T00:26:44.540Z,98906.60
2022-11-25T00:29:14.248Z,98903.60
2022-11-25T00:31:42.851Z,98917.40
2022-11-25T00:34:14.691Z,98915.00
2022-11-25T00:36:42.848Z,98920.40
2022-11-25T00:39:14.887Z,98924.60
2022-11-25T00:42:03.282Z,98921.20
2022-11-25T00:44:40.659Z,98919.60
2022-11-25T00:47:19.736Z,98926.00
2022-11-25T00:49:51.207Z,98919.80
2022-11-25T00:52:27.258Z,98923.20
2022-11-25T00:54:55.088Z,98920.40
2022-11-25T00:57:24.270Z,98921.00
2022-11-25T00:59:51.922Z,98921.80
2022-11-25T01:02:20.619Z,98918.40
2022-11-25T01:04:48.854Z,98919.40
2022-11-25T01:07:17.638Z,98919.80
2022-11-25T01:09:45.456Z,98919.00
2022-11-25T01:12:13.238Z,98922.20
2022-11-25T01:14:41.377Z,98913.80
2022-11-25T01:17:09.079Z,98920.40
2022-11-25T01:19:40.129Z,98919.40
2022-11-25T01:22:09.190Z,98916.60
2022-11-25T01:24:37.046Z,98918.20
2022-11-25T01:27:04.871Z,98918.20
2022-11-25T01:29:32.755Z,98922.20
2022-11-25T01:32:00.553Z,98920.00
2022-11-25T01:34:28.691Z,98919.00
2022-11-25T01:36:56.357Z,98923.00
2022-11-25T01:39:32.009Z,98917.60
2022-11-25T01:42:01.973Z,98916.80
2022-11-25T01:44:32.533Z,98919.40
2022-11-25T01:47:12.086Z,98924.40
2022-11-25T01:50:00.736Z,98925.20
2022-11-25T01:52:36.566Z,98922.00
2022-11-25T01:55:17.450Z,98923.00
2022-11-25T01:58:03.437Z,98922.00
2022-11-25T02:00:31.777Z,98923.20
2022-11-25T02:03:00.878Z,98925.80
2022-11-25T02:06:23.856Z,98927.60
2022-11-25T02:08:58.473Z,98924.80
2022-11-25T02:11:30.824Z,98931.80
2022-11-25T02:14:00.157Z,98933.60
2022-11-25T02:16:28.069Z,98931.00
2022-11-25T02:18:56.153Z,98932.40
2022-11-25T02:21:43.394Z,98930.20
2022-11-25T02:24:25.272Z,98935.40
2022-11-25T02:26:52.939Z,98927.80
2022-11-25T02:29:20.721Z,98920.80
2022-11-25T02:31:51.281Z,98925.40
2022-11-25T02:34:19.080Z,98932.40
2022-11-25T02:36:46.993Z,98934.60
2022-11-25T02:39:14.672Z,98934.00
2022-11-25T02:41:55.311Z,98931.40
2022-11-25T02:44:23.115Z,98936.60
2022-11-25T02:46:51.010Z,98934.80
2022-11-25T02:49:18.703Z,98932.00
2022-11-25T02:51:46.661Z,98935.60
2022-11-25T02:54:16.223Z,98934.80
2022-11-25T02:56:44.801Z,98940.80
2022-11-25T02:59:12.683Z,98935.00
2022-11-25T03:01:40.589Z,98939.20
2022-11-25T03:04:08.410Z,98946.20
2022-11-25T03:06:36.212Z,98946.40
2022-11-25T03:09:04.136Z,98949.00
2022-11-25T03:11:50.514Z,98950.80
2022-11-25T03:14:18.374Z,98951.60
2022-11-25T03:16:46.174Z,98953.40
2022-11-25T03:19:13.983Z,98950.00
2022-11-25T03:21:41.641Z,98950.20
2022-11-25T03:24:09.378Z,98947.80
2022-11-25T03:26:37.108Z,98952.00
2022-11-25T03:29:04.799Z,98962.00
2022-11-25T03:31:32.568Z,98961.20
2022-11-25T03:34:00.279Z,98963.20
2022-11-25T03:36:28.097Z,98965.00
2022-11-25T03:38:55.889Z,98964.20
2022-11-25T03:41:24.167Z,98969.60
2022-11-25T03:43:51.962Z,98975.60
2022-11-25T03:46:19.670Z,98969.00
2022-11-25T03:48:47.410Z,98965.40
2022-11-25T03:51:14.990Z,98968.20
2022-11-25T03:53:42.708Z,98969.20
2022-11-25T03:56:10.414Z,98967.80
2022-11-25T03:58:38.094Z,98970.40
2022-11-25T04:01:05.968Z,98971.60
2022-11-25T04:03:33.775Z,98970.60
2022-11-25T04:06:01.658Z,98971.40
2022-11-25T04:08:29.734Z,98978.20
2022-11-25T04:10:57.428Z,98972.60
2022-11-25T04:13:25.220Z,98976.00
2022-11-25T04:15:53.025Z,98973.20
2022-11-25T04:18:21.642Z,98979.60
2022-11-25T04:20:49.316Z,98978.40
2022-11-25T04:23:17.388Z,98979.80
2022-11-25T04:25:45.066Z,98980.20
2022-11-25T04:28:12.802Z,98980.80
2022-11-25T04:30:40.539Z,98985.40
2022-11-25T04:33:08.390Z,98980.60
2022-11-25T04:35:36.009Z,98975.40
2022-11-25T04:38:03.886Z,98980.00
2022-11-25T04:40:31.539Z,98983.40
2022-11-25T04:43:04.732Z,98989.80
2022-11-25T04:45:58.625Z,98989.60
2022-11-25T04:48:23.639Z,98994.00
2022-11-25T04:50:51.260Z,99003.20
2022-11-25T04:53:18.993Z,98995.60
2022-11-25T04:55:46.755Z,98997.80
2022-11-25T04:58:14.821Z,98998.60
2022-11-25T05:00:42.591Z,98996.60
2022-11-25T05:03:10.564Z,99004.20
2022-11-25T05:05:39.302Z,99005.20
2022-11-25T05:08:07.026Z,99003.00
2022-11-25T05:10:34.761Z,99008.80
2022-11-25T05:13:02.371Z,99015.00
2022-11-25T05:15:30.058Z,99015.40
2022-11-25T05:17:57.743Z,99015.20
2022-11-25T05:20:25.426Z,99017.60
2022-11-25T05:22:53.028Z,99017.40
2022-11-25T05:25:20.971Z,99015.20
2022-11-25T05:27:48.694Z,99015.20
2022-11-25T05:30:16.419Z,99018.00
2022-11-25T05:32:44.848Z,99023.20
2022-11-25T05:35:12.554Z,99019.80
2022-11-25T05:37:40.288Z,99019.80
2022-11-25T05:40:08.666Z,99021.80
2022-11-25T05:42:36.410Z,99022.20
2022-11-25T05:45:04.764Z,99022.40
2022-11-25T05:47:32.397Z,99022.20
2022-11-25T05:50:00.097Z,99022.00
2022-11-25T05:52:27.832Z,99025.00
2022-11-25T05:54:57.467Z,99024.40
2022-11-25T05:57:25.501Z,99024.60
2022-11-25T05:59:53.268Z,99026.80
2022-11-25T06:02:21.062Z,99026.20
2022-11-25T06:04:48.921Z,99030.00
2022-11-25T06:07:16.833Z,99024.80
2022-11-25T06:09:44.592Z,99027.20
2022-11-25T06:12:12.228Z,99030.20
2022-11-25T06:14:39.878Z,99028.80
2022-11-25T06:17:07.561Z,99031.20
2022-11-25T06:19:35.236Z,99039.20
2022-11-25T06:22:03.167Z,99040.40
2022-11-25T06:24:30.915Z,99049.80
2022-11-25T06:26:58.685Z,99038.20
2022-11-25T06:29:26.519Z,99045.80
2022-11-25T06:31:54.151Z,99048.40
2022-11-25T06:34:21.936Z,99047.60
2022-11-25T06:36:50.046Z,99051.80
2022-11-25T06:39:17.978Z,99058.20
2022-11-25T06:41:47.192Z,99053.40
2022-11-25T06:44:15.143Z,99055.20
2022-11-25T06:46:42.994Z,99061.40
2022-11-25T06:49:10.755Z,99064.20
2022-11-25T06:51:38.449Z,99071.00
2022-11-25T06:54:07.339Z,99074.00
2022-11-25T06:56:35.090Z,99075.80
2022-11-25T06:59:04.018Z,99077.40
2022-11-25T07:01:31.827Z,99076.40
2022-11-25T07:04:05.571Z,99074.20
2022-11-25T07:06:34.123Z,99069.80
2022-11-25T07:09:02.710Z,99072.40
2022-11-25T07:11:34.221Z,99075.00
2022-11-25T07:14:06.562Z,99079.40
2022-11-25T07:16:35.001Z,99078.20
2022-11-25T07:19:03.524Z,99084.80
2022-11-25T07:21:33.261Z,99087.00
2022-11-25T07:24:04.208Z,99089.80
2022-11-25T07:26:38.136Z,99093.20
2022-11-25T07:29:29.291Z,99094.40
2022-11-25T07:31:58.354Z,99097.60
2022-11-25T07:34:26.089Z,99102.60
2022-11-25T07:36:54.005Z,99107.20
2022-11-25T07:39:23.727Z,99098.00
2022-11-25T07:41:53.751Z,99104.00
2022-11-25T07:44:21.987Z,99106.00
2022-11-25T07:46:51.616Z,99103.80
2022-11-25T07:49:25.479Z,99102.60
2022-11-25T07:51:57.625Z,99105.80
2022-11-25T07:54:26.077Z,99109.80
2022-11-25T07:56:53.863Z,99113.00
2022-11-25T07:59:23.513Z,99110.60
2022-11-25T08:01:54.285Z,99111.20
2022-11-25T08:04:23.361Z,99115.60
2022-11-25T08:06:53.344Z,99117.80
2022-11-25T08:09:23.795Z,99115.20
2022-11-25T08:11:52.703Z,99115.20
2022-11-25T08:14:21.059Z,99116.80
2022-11-25T08:16:49.213Z,99114.80
2022-11-25T08:19:18.148Z,99120.00
2022-11-25T08:21:48.149Z,99126.80
2022-11-25T08:24:20.766Z,99130.00
2022-11-25T08:26:49.217Z,99129.40
2022-11-25T08:29:19.561Z,99127.60
2022-11-25T08:31:47.383Z,99129.60
2022-11-25T08:34:24.897Z,99133.40
2022-11-25T08:36:53.010Z,99139.60
2022-11-25T08:39:51.196Z,99141.00
2022-11-25T08:42:10.350Z,99136.60
2022-11-25T08:44:38.145Z,99141.00
2022-11-25T08:47:05.939Z,99139.00
2022-11-25T08:49:39.207Z,99144.20
2022-11-25T08:52:10.399Z,99143.20
2022-11-25T08:54:38.526Z,99143.60
2022-11-25T08:57:06.299Z,99147.00
2022-11-25T08:59:34.842Z,99147.00
2022-11-25T09:02:03.495Z,99145.80
2022-11-25T09:04:32.095Z,99145.00
2022-11-25T09:07:01.686Z,99142.80
2022-11-25T09:09:29.409Z,99146.40
2022-11-25T09:11:57.488Z,99139.20
2022-11-25T09:14:25.274Z,99139.40
2022-11-25T09:16:53.734Z,99141.00
2022-11-25T09:19:21.477Z,99143.80
2022-11-25T09:21:50.323Z,99145.00
2022-11-25T09:24:20.408Z,99141.80
2022-11-25T09:26:49.410Z,99140.00
2022-11-25T09:29:17.059Z,99140.20
2022-11-25T09:31:50.120Z,99139.00
2022-11-25T09:34:20.714Z,99136.60
2022-11-25T09:36:48.483Z,99126.20
2022-11-25T09:39:16.181Z,99131.00
2022-11-25T09:42:15.232Z,99134.60
2022-11-25T09:45:29.961Z,99137.80
2022-11-25T09:48:17.814Z,99140.00
2022-11-25T09:50:51.066Z,99145.00
2022-11-25T09:53:33.832Z,99139.40
2022-11-25T09:56:14.752Z,99142.20
2022-11-25T09:58:53.475Z,99136.80
2022-11-25T10:01:29.019Z,99142.80
2022-11-25T10:04:11.102Z,99137.20
2022-11-25T10:06:55.108Z,99137.60
2022-11-25T10:09:29.211Z,99141.20
2022-11-25T10:12:31.080Z,99143.80
2022-11-25T10:15:15.543Z,99143.60
2022-11-25T10:17:50.992Z,99143.80
2022-11-25T10:20:39.011Z,99146.60
2022-11-25T10:23:28.163Z,99144.60
2022-11-25T10:26:01.783Z,99142.80
2022-11-25T10:28:35.187Z,99144.20
2022-11-25T10:31:29.114Z,99148.20
2022-11-25T10:34:00.082Z,99146.20
2022-11-25T10:36:35.393Z,99144.80
2022-11-25T10:39:19.683Z,99135.60
2022-11-25T10:42:09.661Z,99141.00
2022-11-25T10:44:41.075Z,99134.60
2022-11-25T10:47:33.774Z,99128.00
2022-11-25T10:50:29.664Z,99135.00
2022-11-25T10:53:08.662Z,99139.00
2022-11-25T10:55:36.980Z,99135.00
2022-11-25T10:58:33.393Z,99137.80
2022-11-25T11:01:31.947Z,99146.40
2022-11-25T11:04:11.292Z,99140.80
2022-11-25T11:06:43.894Z,99144.40
2022-11-25T11:09:41.018Z,99142.40
2022-11-25T11:12:21.310Z,99145.60
2022-11-25T11:14:50.403Z,99148.80
2022-11-25T11:17:36.783Z,99143.40
2022-11-25T11:20:19.881Z,99147.40
2022-11-25T11:23:08.661Z,99155.60
2022-11-25T11:25:40.406Z,99154.20
2022-11-25T11:28:37.298Z,99153.60
2022-11-25T11:31:26.903Z,99155.20
2022-11-25T11:34:07.046Z,99157.80
2022-11-25T11:36:52.262Z,99155.40
2022-11-25T11:40:00.193Z,99157.80
2022-11-25T11:43:21.652Z,99157.20
2022-11-25T11:46:40.009Z,99156.60
2022-11-25T11:49:49.992Z,99153.00
2022-11-25T11:52:33.252Z,99159.80
2022-11-25T11:55:20.378Z,99161.00
2022-11-25T11:58:10.675Z,99163.60
2022-11-25T12:00:55.982Z,99160.00
2022-11-25T12:03:28.616Z,99161.40
2022-11-25T12:06:04.553Z,99157.60
2022-11-25T12:08:56.316Z,99157.20
2022-11-25T12:11:34.950Z,99164.20
2022-11-25T12:14:41.675Z,99162.00
2022-11-25T12:17:39.283Z,99170.80
2022-11-25T12:20:45.138Z,99169.20
2022-11-25T12:23:42.027Z,99177.80
2022-11-25T12:26:22.427Z,99169.00
2022-11-25T12:29:00.005Z,99164.60
2022-11-25T12:31:38.774Z,99159.80
2022-11-25T12:34:27.563Z,99165.40
2022-11-25T12:37:15.990Z,99176.60
2022-11-25T12:40:13.780Z,99175.60
2022-11-25T12:42:45.335Z,99179.00
2022-11-25T12:45:23.877Z,99178.60
2022-11-25T12:47:53.417Z,99173.80
2022-11-25T12:50:41.437Z,99172.80
2022-11-25T12:53:37.200Z,99181.20
2022-11-25T12:56:17.966Z,99177.80
2022-11-25T12:59:33.132Z,99176.60
2022-11-25T13:02:16.148Z,99175.40
2022-11-25T13:05:40.125Z,99181.40
2022-11-25T13:08:30.190Z,99173.80
2022-11-25T13:11:45.851Z,99178.00
2022-11-25T13:14:48.358Z,99175.40
2022-11-25T13:17:17.893Z,99176.80
2022-11-25T13:19:46.084Z,99175.60
2022-11-25T13:22:29.961Z,99175.00
2022-11-25T13:24:58.507Z,99176.60
2022-11-25T13:27:41.970Z,99174.80
2022-11-25T13:30:32.750Z,99173.80
2022-11-25T13:33:09.405Z,99174.80
2022-11-25T13:35:57.515Z,99177.80
2022-11-25T13:38:50.475Z,99175.60
2022-11-25T13:41:24.760Z,99175.00
2022-11-25T13:44:19.485Z,99180.00
2022-11-25T13:46:53.582Z,99181.20
2022-11-25T13:49:51.890Z,99175.60
2022-11-25T13:52:40.111Z,99183.00
2022-11-25T13:55:25.046Z,99180.60
2022-11-25T13:58:11.376Z,99181.20
2022-11-25T14:00:47.565Z,99182.20
2022-11-25T14:03:46.015Z,99180.20
2022-11-25T14:06:40.652Z,99181.40
2022-11-25T14:09:33.748Z,99179.20
2022-11-25T14:12:21.518Z,99186.80
2022-11-25T14:15:26.108Z,99186.40
2022-11-25T14:18:12.730Z,99188.20
2022-11-25T14:21:37.501Z,99192.80
2022-11-25T14:24:37.687Z,99194.60
2022-11-25T14:27:35.479Z,99189.60
2022-11-25T14:30:10.161Z,99192.80
2022-11-25T14:32:47.893Z,99201.20
2022-11-25T14:35:41.654Z,99192.60
2022-11-25T14:38:38.472Z,99202.60
2022-11-25T14:41:20.495Z,99208.00
2022-11-25T14:43:57.610Z,99206.80
2022-11-25T14:46:25.755Z,99204.60
2022-11-25T14:49:03.340Z,99206.40
2022-11-25T14:51:40.814Z,99207.00
2022-11-25T14:54:10.377Z,99209.80
2022-11-25T14:56:39.317Z,99207.80
2022-11-25T14:59:10.812Z,99215.80
2022-11-25T15:01:50.056Z,99214.60
2022-11-25T15:04:22.985Z,99208.40
2022-11-25T15:06:56.901Z,99209.20
2022-11-25T15:09:32.360Z,99212.20
2022-11-25T15:12:14.386Z,99210.40
2022-11-25T15:14:50.951Z,99212.80
2022-11-25T15:17:30.900Z,99215.60
2022-11-25T15:20:17.642Z,99214.80
2022-11-25T15:22:47.808Z,99215.80
2022-11-25T15:25:18.951Z,99214.20
2022-11-25T15:27:51.945Z,99218.60
2022-11-25T15:30:29.384Z,99218.60
2022-11-25T15:32:57.715Z,99219.80
2022-11-25T15:35:27.449Z,99214.60
2022-11-25T15:37:55.157Z,99222.20
2022-11-25T15:40:43.196Z,99223.20
2022-11-25T15:43:30.478Z,99222.40
2022-11-25T15:46:05.559Z,99219.00
2022-11-25T15:48:49.515Z,99228.40
2022-11-25T15:51:35.694Z,99226.00
2022-11-25T15:54:15.383Z,99225.80
2022-11-25T15:56:51.122Z,99223.80
2022-11-25T15:59:46.072Z,99224.20
2022-11-25T16:02:41.888Z,99232.00
2022-11-25T16:05:15.611Z,99222.60
2022-11-25T16:07:52.411Z,99227.40
2022-11-25T16:10:34.374Z,99232.60
2022-11-25T16:13:22.149Z,99231.80
2022-11-25T16:16:12.873Z,99225.80
2022-11-25T16:18:54.697Z,99230.60
2022-11-25T16:21:43.204Z,99234.20
2022-11-25T16:24:49.584Z,99240.40
2022-11-25T16:27:26.816Z,99240.20
2022-11-25T16:30:18.442Z,99239.60
2022-11-25T16:32:46.216Z,99244.60
2022-11-25T16:35:22.169Z,99244.20
2022-11-25T16:37:50.007Z,99246.20
2022-11-25T16:40:19.403Z,99247.40
2022-11-25T16:42:50.045Z,99246.60
2022-11-25T16:45:25.901Z,99242.40
2022-11-25T16:47:53.767Z,99248.00
2022-11-25T16:50:22.886Z,99251.80
2022-11-25T16:52:50.634Z,99247.00
2022-11-25T16:55:18.574Z,99247.40
2022-11-25T16:57:47.068Z,99246.20
2022-11-25T17:00:17.129Z,99246.60
2022-11-25T17:02:45.355Z,99251.20
2022-11-25T17:05:20.597Z,99254.80
2022-11-25T17:07:52.737Z,99258.60
2022-11-25T17:10:21.535Z,99259.20
2022-11-25T17:12:50.615Z,99258.60
2022-11-25T17:15:36.880Z,99263.60
2022-11-25T17:18:08.205Z,99258.80
2022-11-25T17:20:35.875Z,99264.80
2022-11-25T17:23:03.608Z,99263.00
2022-11-25T17:25:36.837Z,99263.00
2022-11-25T17:28:05.302Z,99268.80
2022-11-25T17:30:33.080Z,99267.20
2022-11-25T17:33:14.174Z,99269.40
2022-11-25T17:35:43.484Z,99270.80
2022-11-25T17:38:16.081Z,99271.60
2022-11-25T17:40:44.497Z,99268.60
2022-11-25T17:43:18.526Z,99268.40
2022-11-25T17:45:47.503Z,99274.20
2022-11-25T17:48:17.927Z,99274.60
2022-11-25T17:50:46.992Z,99279.60
2022-11-25T17:53:14.644Z,99276.20
2022-11-25T17:55:42.769Z,99278.60
2022-11-25T17:58:14.784Z,99285.80
2022-11-25T18:00:45.005Z,99282.00
2022-11-25T18:03:16.265Z,99283.80
2022-11-25T18:05:44.178Z,99288.60
2022-11-25T18:08:11.821Z,99289.00
2022-11-25T18:10:39.909Z,99291.80
2022-11-25T18:13:07.649Z,99288.80
2022-11-25T18:15:35.462Z,99293.20
2022-11-25T18:18:15.576Z,99294.80
2022-11-25T18:20:43.207Z,99293.80
2022-11-25T18:23:10.903Z,99290.20
2022-11-25T18:25:40.339Z,99300.40
2022-11-25T18:28:15.057Z,99298.00
2022-11-25T18:30:43.176Z,99302.20
2022-11-25T18:33:16.859Z,99297.60
2022-11-25T18:35:45.999Z,99309.40
2022-11-25T18:38:14.484Z,99310.80
2022-11-25T18:40:50.249Z,99322.00
2022-11-25T18:43:24.867Z,99315.60
2022-11-25T18:45:54.377Z,99311.60
2022-11-25T18:48:26.021Z,99316.20
2022-11-25T18:50:56.180Z,99311.40
2022-11-25T18:53:24.348Z,99313.60
2022-11-25T18:55:52.131Z,99305.80
2022-11-25T18:58:24.788Z,99305.40
2022-11-25T19:01:01.082Z,99308.40
2022-11-25T19:03:29.088Z,99314.20
2022-11-25T19:06:01.008Z,99312.60
2022-11-25T19:08:29.785Z,99317.40
2022-11-25T19:10:57.639Z,99320.80
2022-11-25T19:13:35.739Z,99316.80
2022-11-25T19:16:13.407Z,99310.00
2022-11-25T19:18:45.075Z,99318.40
2022-11-25T19:21:17.003Z,99313.40
2022-11-25T19:23:45.959Z,99319.80
2022-11-25T19:26:19.803Z,99316.00
2022-11-25T19:28:53.266Z,99322.40
2022-11-25T19:31:21.524Z,99325.60
2022-11-25T19:33:51.624Z,99322.80
2022-11-25T19:36:34.920Z,99325.80
2022-11-25T19:39:02.715Z,99328.60
2022-11-25T19:41:30.486Z,99335.20
2022-11-25T19:43:58.268Z,99341.40
2022-11-25T19:46:46.218Z,99338.00
2022-11-25T19:49:20.105Z,99336.40
2022-11-25T19:51:48.950Z,99341.60
2022-11-25T19:54:19.280Z,99340.60
2022-11-25T19:56:47.221Z,99336.00
2022-11-25T19:59:14.945Z,99335.60
2022-11-25T20:01:45.629Z,99344.80
2022-11-25T20:04:20.886Z,99354.40
2022-11-25T20:06:49.839Z,99354.00
2022-11-25T20:09:17.518Z,99353.20
2022-11-25T20:11:45.277Z,99349.60
2022-11-25T20:14:12.880Z,99353.40
2022-11-25T20:16:41.819Z,99360.60
2022-11-25T20:19:18.117Z,99354.00
2022-11-25T20:21:46.598Z,99364.60
2022-11-25T20:24:20.308Z,99360.60
2022-11-25T20:26:48.915Z,99359.00
2022-11-25T20:29:24.532Z,99356.00
2022-11-25T20:31:56.135Z,99360.00
2022-11-25T20:34:24.718Z,99359.60
2022-11-25T20:36:52.464Z,99363.20
2022-11-25T20:39:20.533Z,99368.00
2022-11-25T20:41:52.628Z,99363.40
2022-11-25T20:44:21.348Z,99367.00
2022-11-25T20:46:49.059Z,99367.80
2022-11-25T20:49:27.707Z,99368.60
2022-11-25T20:51:57.722Z,99377.40
2022-11-25T20:54:25.674Z,99379.40
2022-11-25T20:56:56.399Z,99383.00
2022-11-25T20:59:24.574Z,99382.00
2022-11-25T21:01:54.586Z,99388.40
2022-11-25T21:04:23.254Z,99384.60
2022-11-25T21:06:51.272Z,99392.80
2022-11-25T21:09:24.865Z,99388.80
2022-11-25T21:11:52.666Z,99389.00
2022-11-25T21:14:20.534Z,99384.40
2022-11-25T21:16:48.558Z,99386.00
2022-11-25T21:19:16.588Z,99385.20
2022-11-25T21:21:49.205Z,99382.00
2022-11-25T21:24:32.709Z,99385.60
2022-11-25T21:27:08.759Z,99383.80
2022-11-25T21:29:42.111Z,99381.00
2022-11-25T21:32:26.216Z,99380.40
2022-11-25T21:34:54.793Z,99378.00
2022-11-25T21:37:32.324Z,99379.20
2022-11-25T21:40:00.692Z,99379.80
2022-11-25T21:42:31.408Z,99379.40
2022-11-25T21:44:59.387Z,99382.40
2022-11-25T21:47:30.345Z,99379.60
2022-11-25T21:49:58.684Z,99387.40
2022-11-25T21:52:26.552Z,99391.60
2022-11-25T21:54:54.294Z,99395.20
2022-11-25T21:57:28.391Z,99401.40
2022-11-25T21:59:56.045Z,99412.60
2022-11-25T22:02:25.105Z,99410.40
2022-11-25T22:04:58.859Z,99416.60
2022-11-25T22:07:30.755Z,99417.80
2022-11-25T22:09:58.913Z,99419.60
2022-11-25T22:12:30.483Z,99417.40
2022-11-25T22:15:00.082Z,99423.80
2022-11-25T22:17:30.158Z,99428.00
2022-11-25T22:19:58.303Z,99428.80
2022-11-25T22:22:25.979Z,99430.40
2022-11-25T22:24:53.600Z,99429.60
2022-11-25T22:27:25.883Z,99441.40
2022-11-25T22:29:55.334Z,99435.60
2022-11-25T22:32:23.207Z,99440.40
2022-11-25T22:34:50.806Z,99445.00
2022-11-25T22:37:23.076Z,99437.80
2022-11-25T22:39:51.452Z,99447.00
2022-11-25T22:42:25.733Z,99448.80
2022-11-25T22:44:57.175Z,99449.00
2022-11-25T22:47:28.021Z,99455.20
2022-11-25T22:49:56.208Z,99455.20
2022-11-25T22:52:35.595Z,99459.20
2022-11-25T22:55:28.271Z,99453.60
2022-11-25T22:57:59.409Z,99459.60
2022-11-25T23:00:42.635Z,99463.20
2022-11-25T23:03:26.090Z,99465.60
2022-11-25T23:05:54.468Z,99463.00
2022-11-25T23:08:27.017Z,99469.20
2022-11-25T23:10:56.443Z,99468.60
2022-11-25T23:13:24.563Z,99466.60
2022-11-25T23:16:00.007Z,99468.00
2022-11-25T23:18:48.045Z,99465.80
2022-11-25T23:21:18.720Z,99468.80
2022-11-25T23:23:46.391Z,99474.60
2022-11-25T23:26:15.506Z,99474.00
2022-11-25T23:28:43.147Z,99475.00
2022-11-25T23:31:14.372Z,99481.20
2022-11-25T23:33:50.572Z,99474.00
2022-11-25T23:36:25.448Z,99474.20
2022-11-25T23:38:57.919Z,99472.60
2022-11-25T23:41:28.462Z,99472.00
2022-11-25T23:43:58.547Z,99479.00
2022-11-25T23:46:37.000Z,99480.20
2022-11-25T23:49:12.872Z,99480.60
2022-11-25T23:51:40.617Z,99484.80
2022-11-25T23:54:16.724Z,99483.80
2022-11-25T23:56:44.725Z,99488.40
2022-11-25T23:59:15.413Z,99488.80
